createdAt,value
2019-03-04T00:00:52.295Z,95452.00
2019-03-04T00:03:21.651Z,95444.88
2019-03-04T00:05:52.945Z,95454.55
2019-03-04T00:08:22.337Z,95452.96
2019-03-04T00:10:51.746Z,95446.83
2019-03-04T00:13:21.201Z,95442.80
2019-03-04T00:15:50.548Z,95433.41
2019-03-04T00:18:19.932Z,95439.81
2019-03-04T00:20:49.298Z,95430.38
2019-03-04T00:23:18.637Z,95429.95
2019-03-04T00:25:47.993Z,95428.66
2019-03-04T00:28:17.366Z,95429.75
2019-03-04T00:30:46.702Z,95430.37
2019-03-04T00:33:16.126Z,95431.95
2019-03-04T00:35:45.446Z,95428.16
2019-03-04T00:38:14.774Z,95422.27
2019-03-04T00:40:44.170Z,95428.44
2019-03-04T00:43:13.523Z,95423.11
2019-03-04T00:45:42.881Z,95428.63
2019-03-04T00:48:12.516Z,95423.81
2019-03-04T00:50:42.084Z,95423.50
2019-03-04T00:53:11.448Z,95423.52
2019-03-04T00:55:41.198Z,95419.25
2019-03-04T00:58:10.558Z,95420.58
2019-03-04T01:00:39.901Z,95418.18
2019-03-04T01:03:09.249Z,95420.16
2019-03-04T01:05:38.618Z,95418.52
2019-03-04T01:08:08.061Z,95430.73
2019-03-04T01:10:37.421Z,95419.61
2019-03-04T01:13:06.801Z,95417.22
2019-03-04T01:15:36.175Z,95404.98
2019-03-04T01:18:05.650Z,95404.73
2019-03-04T01:20:35.049Z,95400.80
2019-03-04T01:23:04.505Z,95397.11
2019-03-04T01:25:33.854Z,95395.76
2019-03-04T01:28:03.216Z,95389.59
2019-03-04T01:30:32.587Z,95391.80
2019-03-04T01:33:01.959Z,95395.57
2019-03-04T01:35:31.285Z,95383.31
2019-03-04T01:38:00.638Z,95383.54
2019-03-04T01:40:30.009Z,95382.74
2019-03-04T01:42:59.424Z,95386.72
2019-03-04T01:45:28.805Z,95387.78
2019-03-04T01:47:58.150Z,95386.98
2019-03-04T01:50:27.481Z,95385.58
2019-03-04T01:52:56.812Z,95383.44
2019-03-04T01:55:26.189Z,95389.27
2019-03-04T01:57:55.568Z,95383.94
2019-03-04T02:00:24.973Z,95389.00
2019-03-04T02:02:54.347Z,95384.27
2019-03-04T02:05:23.693Z,95387.17
2019-03-04T02:07:53.077Z,95392.45
2019-03-04T02:10:22.574Z,95398.78
2019-03-04T02:12:51.908Z,95392.45
2019-03-04T02:15:21.428Z,95392.94
2019-03-04T02:17:50.771Z,95396.39
2019-03-04T02:20:20.124Z,95392.80
2019-03-04T02:22:49.472Z,95385.50
2019-03-04T02:25:19.639Z,95389.51
2019-03-04T02:27:54.097Z,95403.52
2019-03-04T02:30:25.821Z,95391.45
2019-03-04T02:32:55.219Z,95387.11
2019-03-04T02:35:24.557Z,95385.52
2019-03-04T02:37:53.931Z,95400.72
2019-03-04T02:40:23.289Z,95396.98
2019-03-04T02:42:52.643Z,95392.44
2019-03-04T02:45:22.015Z,95390.05
2019-03-04T02:47:51.380Z,95380.31
2019-03-04T02:50:21.331Z,95377.20
2019-03-04T02:53:29.511Z,95378.41
2019-03-04T02:55:58.993Z,95375.48
2019-03-04T02:58:28.533Z,95376.17
2019-03-04T03:00:58.088Z,95373.71
2019-03-04T03:03:27.540Z,95373.55
2019-03-04T03:05:57.048Z,95370.86
2019-03-04T03:08:26.698Z,95370.42
2019-03-04T03:10:56.604Z,95367.13
2019-03-04T03:13:28.278Z,95368.11
2019-03-04T03:15:58.121Z,95374.05
2019-03-04T03:18:27.588Z,95384.55
2019-03-04T03:21:00.855Z,95375.33
2019-03-04T03:23:30.198Z,95375.73
2019-03-04T03:25:59.524Z,95380.73
2019-03-04T03:28:28.889Z,95376.47
2019-03-04T03:30:58.279Z,95382.81
2019-03-04T03:33:27.685Z,95380.93
2019-03-04T03:35:57.039Z,95379.47
2019-03-04T03:38:26.388Z,95377.34
2019-03-04T03:40:55.734Z,95377.14
2019-03-04T03:43:25.075Z,95373.08
2019-03-04T03:45:54.456Z,95370.56
2019-03-04T03:48:23.809Z,95370.50
2019-03-04T03:50:53.163Z,95365.51
2019-03-04T03:53:22.521Z,95362.52
2019-03-04T03:55:51.874Z,95364.38
2019-03-04T03:58:21.249Z,95358.67
2019-03-04T04:00:50.593Z,95357.66
2019-03-04T04:03:19.940Z,95367.02
2019-03-04T04:05:49.285Z,95359.59
2019-03-04T04:08:18.646Z,95363.75
2019-03-04T04:10:48.005Z,95362.59
2019-03-04T04:13:17.386Z,95365.84
2019-03-04T04:15:46.748Z,95365.05
2019-03-04T04:18:16.100Z,95365.34
2019-03-04T04:20:45.427Z,95366.68
2019-03-04T04:23:14.814Z,95363.98
2019-03-04T04:25:44.166Z,95361.38
2019-03-04T04:28:13.488Z,95356.13
2019-03-04T04:30:42.856Z,95353.27
2019-03-04T04:33:12.212Z,95354.93
2019-03-04T04:35:41.624Z,95353.67
2019-03-04T04:38:11.019Z,95359.28
2019-03-04T04:40:40.397Z,95362.51
2019-03-04T04:43:09.739Z,95361.98
2019-03-04T04:45:39.128Z,95359.17
2019-03-04T04:48:08.593Z,95354.50
2019-03-04T04:50:37.942Z,95355.28
2019-03-04T04:53:07.319Z,95361.92
2019-03-04T04:55:36.669Z,95360.34
2019-03-04T04:58:06.014Z,95362.75
2019-03-04T05:00:35.363Z,95361.45
2019-03-04T05:03:04.704Z,95361.73
2019-03-04T05:05:34.055Z,95355.62
2019-03-04T05:08:03.409Z,95345.53
2019-03-04T05:10:32.773Z,95344.76
2019-03-04T05:13:02.149Z,95353.76
2019-03-04T05:15:31.516Z,95354.56
2019-03-04T05:18:00.846Z,95358.55
2019-03-04T05:20:30.204Z,95364.06
2019-03-04T05:22:59.577Z,95356.20
2019-03-04T05:25:28.961Z,95355.16
2019-03-04T05:27:58.386Z,95351.23
2019-03-04T05:30:27.792Z,95367.26
2019-03-04T05:32:57.141Z,95363.61
2019-03-04T05:35:26.530Z,95368.92
2019-03-04T05:37:55.962Z,95368.92
2019-03-04T05:40:25.316Z,95368.08
2019-03-04T05:42:54.734Z,95370.66
2019-03-04T05:45:24.068Z,95366.59
2019-03-04T05:47:53.473Z,95364.39
2019-03-04T05:50:22.866Z,95368.77
2019-03-04T05:52:53.636Z,95367.98
2019-03-04T05:55:23.141Z,95366.38
2019-03-04T05:57:52.511Z,95377.22
2019-03-04T06:00:22.955Z,95374.22
2019-03-04T06:02:52.334Z,95382.21
2019-03-04T06:05:21.709Z,95383.59
2019-03-04T06:07:57.176Z,95385.23
2019-03-04T06:10:26.658Z,95390.73
2019-03-04T06:12:56.005Z,95392.55
2019-03-04T06:15:25.373Z,95392.86
2019-03-04T06:17:54.787Z,95399.73
2019-03-04T06:20:24.211Z,95396.06
2019-03-04T06:22:53.540Z,95395.53
2019-03-04T06:25:25.171Z,95397.50
2019-03-04T06:27:54.549Z,95399.10
2019-03-04T06:30:24.983Z,95397.84
2019-03-04T06:32:54.402Z,95405.63
2019-03-04T06:35:23.809Z,95411.19
2019-03-04T06:37:53.151Z,95405.17
2019-03-04T06:40:22.619Z,95406.22
2019-03-04T06:42:51.988Z,95408.55
2019-03-04T06:45:21.372Z,95413.70
2019-03-04T06:47:50.843Z,95408.20
2019-03-04T06:50:47.838Z,95412.33
2019-03-04T06:53:47.504Z,95407.36
2019-03-04T06:56:33.463Z,95416.83
2019-03-04T06:59:07.375Z,95412.80
2019-03-04T07:01:43.858Z,95417.12
2019-03-04T07:04:37.772Z,95418.17
2019-03-04T07:07:07.166Z,95415.63
2019-03-04T07:09:36.539Z,95424.55
2019-03-04T07:12:05.899Z,95419.16
2019-03-04T07:14:35.258Z,95421.58
2019-03-04T07:17:04.595Z,95027.94
2019-03-04T07:19:36.040Z,95413.16
2019-03-04T07:22:05.835Z,95411.84
2019-03-04T07:24:35.209Z,95412.19
2019-03-04T07:27:04.740Z,95408.45
2019-03-04T07:29:34.134Z,95415.28
2019-03-04T07:32:03.496Z,95408.63
2019-03-04T07:34:33.864Z,95406.83
2019-03-04T07:37:03.479Z,95400.01
2019-03-04T07:39:32.838Z,95401.64
2019-03-04T07:42:02.169Z,95397.66
2019-03-04T07:44:31.818Z,95397.55
2019-03-04T07:47:01.182Z,95399.06
2019-03-04T07:49:30.565Z,95389.08
2019-03-04T07:51:59.894Z,95403.33
2019-03-04T07:54:29.267Z,95390.11
2019-03-04T07:56:58.717Z,95395.37
2019-03-04T07:59:28.086Z,95386.88
2019-03-04T08:01:57.487Z,95381.14
2019-03-04T08:04:26.899Z,95382.63
2019-03-04T08:07:32.048Z,95378.16
2019-03-04T08:11:01.846Z,95393.70
2019-03-04T08:13:38.419Z,95376.64
2019-03-04T08:16:08.464Z,95376.56
2019-03-04T08:18:37.810Z,95371.08
2019-03-04T08:21:07.270Z,95370.98
2019-03-04T08:23:36.863Z,95364.25
2019-03-04T08:26:16.958Z,95373.20
2019-03-04T08:28:47.125Z,95364.55
2019-03-04T08:31:38.671Z,95363.55
2019-03-04T08:34:09.352Z,95361.41
2019-03-04T08:36:48.687Z,95354.45
2019-03-04T08:39:18.214Z,95351.54
2019-03-04T08:41:47.746Z,95340.86
2019-03-04T08:44:17.339Z,95340.86
2019-03-04T08:46:47.084Z,95336.96
2019-03-04T08:52:19.940Z,94842.91
2019-03-04T08:54:49.510Z,95347.91
2019-03-04T08:57:25.288Z,95342.17
2019-03-04T08:59:54.694Z,95309.94
2019-03-04T09:02:24.302Z,95309.94
2019-03-04T09:05:18.198Z,95332.11
2019-03-04T09:07:46.746Z,95324.23
2019-03-04T09:10:21.757Z,95329.84
2019-03-04T09:12:51.338Z,95332.47
2019-03-04T09:15:21.116Z,95327.19
2019-03-04T09:17:52.720Z,95328.25
2019-03-04T09:20:23.303Z,95316.20
2019-03-04T09:22:54.544Z,95324.17
2019-03-04T09:25:35.712Z,95316.31
2019-03-04T09:28:08.429Z,95313.09
2019-03-04T09:30:37.800Z,95306.23
2019-03-04T09:33:08.056Z,95306.36
2019-03-04T09:35:37.697Z,95311.47
2019-03-04T09:38:07.829Z,95298.47
2019-03-04T09:40:37.896Z,95287.70
2019-03-04T09:43:07.911Z,95289.06
2019-03-04T09:45:39.122Z,95292.30
2019-03-04T09:48:08.765Z,95286.54
2019-03-04T09:50:38.233Z,95280.03
2019-03-04T09:53:07.630Z,95280.83
2019-03-04T09:55:37.076Z,95278.97
2019-03-04T09:58:06.479Z,95005.66
2019-03-04T10:01:18.318Z,95276.03
2019-03-04T10:04:13.890Z,95004.50
2019-03-04T10:07:27.980Z,95255.92
2019-03-04T10:10:26.755Z,95254.20
2019-03-04T10:13:33.247Z,95242.11
2019-03-04T10:16:29.326Z,95239.45
2019-03-04T10:19:51.143Z,95233.77
2019-03-04T10:22:42.414Z,95229.05
2019-03-04T10:25:57.554Z,95231.05
2019-03-04T10:29:06.794Z,95217.53
2019-03-04T10:31:56.770Z,95223.08
2019-03-04T10:35:22.286Z,95215.47
2019-03-04T10:38:29.311Z,95215.95
2019-03-04T10:41:10.465Z,95205.41
2019-03-04T10:44:33.118Z,95193.19
2019-03-04T10:47:01.950Z,95192.14
2019-03-04T10:49:32.356Z,95179.88
2019-03-04T10:52:02.181Z,95179.25
2019-03-04T10:54:31.696Z,95170.29
2019-03-04T10:57:01.618Z,95168.37
2019-03-04T10:59:31.027Z,95155.74
2019-03-04T11:02:00.480Z,95159.01
2019-03-04T11:04:30.007Z,95146.15
2019-03-04T11:06:59.485Z,95146.91
2019-03-04T11:09:28.857Z,95142.62
2019-03-04T11:11:58.242Z,95139.75
2019-03-04T11:14:27.608Z,95122.80
2019-03-04T11:16:56.942Z,95124.15
2019-03-04T11:19:26.312Z,95115.77
2019-03-04T11:21:55.798Z,95109.27
2019-03-04T11:24:25.124Z,95109.83
2019-03-04T11:26:54.616Z,95101.08
2019-03-04T11:29:24.069Z,95095.25
2019-03-04T11:31:53.447Z,95096.42
2019-03-04T11:34:22.817Z,95084.88
2019-03-04T11:36:52.377Z,95091.52
2019-03-04T11:39:44.800Z,95082.88
2019-03-04T11:42:14.190Z,95076.38
2019-03-04T11:44:43.589Z,95068.48
2019-03-04T11:47:13.831Z,95070.64
2019-03-04T11:49:43.218Z,95018.09
2019-03-04T11:52:12.637Z,95052.24
2019-03-04T11:54:41.985Z,95049.63
2019-03-04T11:57:11.349Z,95040.93
2019-03-04T11:59:40.831Z,95037.63
2019-03-04T12:02:17.176Z,95030.00
2019-03-04T12:04:46.530Z,95020.65
2019-03-04T12:07:15.862Z,95019.28
2019-03-04T12:09:45.213Z,95017.70
2019-03-04T12:12:14.592Z,95011.83
2019-03-04T12:14:44.174Z,95002.45
2019-03-04T12:17:13.961Z,94998.72
2019-03-04T12:19:43.314Z,94999.95
2019-03-04T12:22:12.688Z,95001.50
2019-03-04T12:24:42.017Z,94996.64
2019-03-04T12:27:11.381Z,95010.08
2019-03-04T12:29:40.739Z,94994.07
2019-03-04T12:32:14.056Z,94986.47
2019-03-04T12:34:43.445Z,94990.52
2019-03-04T12:37:12.895Z,94979.38
2019-03-04T12:39:42.316Z,94975.33
2019-03-04T12:42:11.680Z,94973.20
2019-03-04T12:44:41.083Z,94977.09
2019-03-04T12:47:10.416Z,94970.20
2019-03-04T12:49:39.908Z,94966.69
2019-03-04T12:52:09.280Z,94959.08
2019-03-04T12:54:38.638Z,94952.03
2019-03-04T12:57:08.035Z,94944.92
2019-03-04T12:59:37.398Z,94948.83
2019-03-04T13:02:07.568Z,94949.02
2019-03-04T13:04:36.888Z,94936.30
2019-03-04T13:07:06.268Z,94932.80
2019-03-04T13:09:35.696Z,94933.31
2019-03-04T13:12:05.062Z,94927.97
2019-03-04T13:14:34.971Z,94925.01
2019-03-04T13:17:07.422Z,94920.55
2019-03-04T13:19:36.825Z,94918.88
2019-03-04T13:22:08.778Z,94907.55
2019-03-04T13:24:37.408Z,94908.52
2019-03-04T13:27:06.936Z,94914.05
2019-03-04T13:29:36.329Z,94900.05
2019-03-04T13:32:05.695Z,94896.84
2019-03-04T13:34:35.092Z,94892.76
2019-03-04T13:37:07.209Z,94886.87
2019-03-04T13:39:36.581Z,94896.44
2019-03-04T13:42:05.972Z,94887.27
2019-03-04T13:44:35.807Z,94884.52
2019-03-04T13:47:05.255Z,94718.37
2019-03-04T13:49:34.756Z,94880.38
2019-03-04T13:52:04.201Z,94882.47
2019-03-04T13:54:33.596Z,94873.57
2019-03-04T13:57:02.988Z,94867.84
2019-03-04T13:59:32.348Z,94866.87
2019-03-04T14:02:01.718Z,94866.22
2019-03-04T14:04:31.057Z,94861.95
2019-03-04T14:07:00.429Z,94862.14
2019-03-04T14:09:29.755Z,94865.69
2019-03-04T14:11:59.256Z,94852.36
2019-03-04T14:14:28.653Z,94854.92
2019-03-04T14:16:58.154Z,94857.23
2019-03-04T14:19:27.476Z,94846.09
2019-03-04T14:21:57.007Z,94832.50
2019-03-04T14:24:26.351Z,94836.41
2019-03-04T14:26:55.782Z,94833.68
2019-03-04T14:29:25.122Z,94842.00
2019-03-04T14:31:54.507Z,94828.78
2019-03-04T14:34:24.015Z,94826.02
2019-03-04T14:36:53.552Z,94827.61
2019-03-04T14:39:22.925Z,94825.10
2019-03-04T14:41:52.653Z,94816.94
2019-03-04T14:44:22.089Z,94813.69
2019-03-04T14:46:51.446Z,94821.31
2019-03-04T14:49:20.801Z,94810.95
2019-03-04T14:51:50.199Z,94821.28
2019-03-04T14:54:19.563Z,94818.81
2019-03-04T14:56:48.909Z,94819.78
2019-03-04T14:59:18.257Z,94817.23
2019-03-04T15:01:47.596Z,94819.22
2019-03-04T15:04:17.426Z,94813.12
2019-03-04T15:06:46.842Z,94817.94
2019-03-04T15:09:16.553Z,94818.69
2019-03-04T15:11:45.989Z,94809.20
2019-03-04T15:14:15.390Z,94807.22
2019-03-04T15:16:46.420Z,94806.22
2019-03-04T15:19:23.802Z,94803.27
2019-03-04T15:22:34.414Z,94799.92
2019-03-04T15:25:27.671Z,94791.92
2019-03-04T15:28:15.055Z,94790.75
2019-03-04T15:30:45.170Z,94778.52
2019-03-04T15:33:18.518Z,94779.87
2019-03-04T15:35:46.127Z,94780.22
2019-03-04T15:38:15.561Z,94783.72
2019-03-04T15:40:44.922Z,94774.95
2019-03-04T15:43:14.252Z,94769.69
2019-03-04T15:45:46.250Z,94769.16
2019-03-04T15:48:15.812Z,94775.11
2019-03-04T15:50:48.042Z,94771.53
2019-03-04T15:53:17.809Z,94764.30
2019-03-04T15:55:47.338Z,94769.10
2019-03-04T15:58:16.811Z,94764.68
2019-03-04T16:00:46.180Z,94768.50
2019-03-04T16:03:15.579Z,94776.88
2019-03-04T16:05:45.508Z,94771.77
2019-03-04T16:08:14.845Z,94770.69
2019-03-04T16:10:44.310Z,94775.48
2019-03-04T16:13:13.760Z,94778.13
2019-03-04T16:15:44.383Z,94781.72
2019-03-04T16:18:14.281Z,94776.56
2019-03-04T16:20:43.823Z,94780.04
2019-03-04T16:23:13.280Z,94780.96
2019-03-04T16:25:42.683Z,94778.87
2019-03-04T16:28:18.280Z,94782.23
2019-03-04T16:30:49.770Z,94785.09
2019-03-04T16:33:19.324Z,94785.79
2019-03-04T16:35:48.848Z,94783.55
2019-03-04T16:38:18.330Z,94784.20
2019-03-04T16:40:47.724Z,94785.68
2019-03-04T16:43:21.133Z,94780.85
2019-03-04T16:45:50.486Z,94782.78
2019-03-04T16:48:19.891Z,94775.80
2019-03-04T16:50:49.558Z,94769.61
2019-03-04T16:53:19.472Z,94777.16
2019-03-04T16:55:48.866Z,94776.95
2019-03-04T16:58:18.767Z,94782.26
2019-03-04T17:00:48.899Z,94779.06
2019-03-04T17:03:18.356Z,94770.70
2019-03-04T17:05:47.883Z,94779.13
2019-03-04T17:08:17.272Z,94768.37
2019-03-04T17:10:46.652Z,94773.34
2019-03-04T17:13:16.108Z,94774.98
2019-03-04T17:15:45.553Z,94785.32
2019-03-04T17:18:14.999Z,94783.93
2019-03-04T17:20:44.416Z,94777.44
2019-03-04T17:23:13.852Z,94659.49
2019-03-04T17:25:46.503Z,94784.36
2019-03-04T17:28:16.004Z,94787.24
2019-03-04T17:30:45.744Z,94778.48
2019-03-04T17:33:15.421Z,94781.46
2019-03-04T17:35:44.859Z,94784.02
2019-03-04T17:38:14.232Z,94787.78
2019-03-04T17:40:43.650Z,94784.64
2019-03-04T17:43:12.961Z,94783.27
2019-03-04T17:45:42.501Z,94791.38
2019-03-04T17:48:11.986Z,94786.00
2019-03-04T17:50:41.395Z,94451.83
2019-03-04T17:53:10.879Z,94798.52
2019-03-04T17:55:40.810Z,94804.57
2019-03-04T17:58:10.206Z,94813.11
2019-03-04T18:00:41.252Z,94807.16
2019-03-04T18:03:11.809Z,94821.51
2019-03-04T18:05:41.188Z,94818.94
2019-03-04T18:08:10.870Z,94807.15
2019-03-04T18:10:40.284Z,94805.81
2019-03-04T18:13:10.939Z,94821.79
2019-03-04T18:15:40.338Z,94819.41
2019-03-04T18:18:09.708Z,94819.09
2019-03-04T18:20:39.082Z,94825.67
2019-03-04T18:23:08.892Z,94813.65
2019-03-04T18:25:44.851Z,94818.95
2019-03-04T18:28:27.941Z,94818.47
2019-03-04T18:31:28.959Z,94812.28
2019-03-04T18:34:40.725Z,94803.48
2019-03-04T18:37:48.394Z,94809.55
2019-03-04T18:40:54.564Z,94810.64
2019-03-04T18:43:47.955Z,94806.06
2019-03-04T18:47:08.235Z,94814.65
2019-03-04T18:49:37.615Z,94817.84
2019-03-04T18:52:07.002Z,94823.01
2019-03-04T18:54:36.338Z,94827.27
2019-03-04T18:57:05.968Z,94658.45
2019-03-04T18:59:35.456Z,94818.64
2019-03-04T19:02:04.964Z,94818.66
2019-03-04T19:04:34.353Z,94801.25
2019-03-04T19:07:03.765Z,94808.51
2019-03-04T19:09:33.158Z,94826.98
2019-03-04T19:12:02.514Z,94825.55
2019-03-04T19:14:31.849Z,94828.67
2019-03-04T19:17:01.296Z,94828.91
2019-03-04T19:19:30.643Z,94836.53
2019-03-04T19:22:00.023Z,94819.02
2019-03-04T19:24:29.521Z,94817.56
2019-03-04T19:26:58.872Z,94826.43
2019-03-04T19:29:28.230Z,94820.83
2019-03-04T19:31:57.577Z,94819.69
2019-03-04T19:34:28.294Z,94822.27
2019-03-04T19:36:57.874Z,94829.91
2019-03-04T19:39:28.322Z,94814.43
2019-03-04T19:41:57.745Z,94821.05
2019-03-04T19:44:27.157Z,94813.88
2019-03-04T19:46:56.719Z,94816.34
2019-03-04T19:49:25.993Z,94808.72
2019-03-04T19:51:55.535Z,94805.11
2019-03-04T19:54:24.890Z,94800.17
2019-03-04T19:56:54.228Z,94803.56
2019-03-04T19:59:23.694Z,94801.76
2019-03-04T20:01:52.909Z,94806.14
2019-03-04T20:04:22.310Z,94802.42
2019-03-04T20:06:51.728Z,94813.55
2019-03-04T20:09:21.146Z,94803.78
2019-03-04T20:11:50.582Z,94812.86
2019-03-04T20:14:19.914Z,94817.56
2019-03-04T20:16:49.309Z,94825.06
2019-03-04T20:19:18.709Z,94825.09
2019-03-04T20:21:48.054Z,94817.14
2019-03-04T20:24:17.431Z,94819.25
2019-03-04T20:26:46.792Z,94821.36
2019-03-04T20:29:16.324Z,94825.03
2019-03-04T20:31:45.715Z,94638.89
2019-03-04T20:34:15.521Z,94825.48
2019-03-04T20:36:44.994Z,94823.14
2019-03-04T20:39:16.301Z,94825.86
2019-03-04T20:41:45.649Z,94835.15
2019-03-04T20:44:16.448Z,94825.36
2019-03-04T20:46:45.844Z,94710.98
2019-03-04T20:49:15.231Z,94830.77
2019-03-04T20:51:44.539Z,94822.36
2019-03-04T20:54:13.899Z,94823.05
2019-03-04T20:56:43.263Z,94824.22
2019-03-04T20:59:12.625Z,94822.13
2019-03-04T21:01:42.090Z,94817.41
2019-03-04T21:04:11.817Z,94812.66
2019-03-04T21:06:41.204Z,94820.88
2019-03-04T21:09:11.850Z,94823.88
2019-03-04T21:11:41.218Z,94815.25
2019-03-04T21:14:10.605Z,94816.16
2019-03-04T21:16:39.971Z,94809.71
2019-03-04T21:19:09.322Z,94816.13
2019-03-04T21:21:38.711Z,94813.15
2019-03-04T21:24:08.091Z,94806.92
2019-03-04T21:26:40.928Z,94805.03
2019-03-04T21:30:12.759Z,94797.53
2019-03-04T21:32:47.111Z,94797.95
2019-03-04T21:36:02.677Z,94797.95
2019-03-04T21:38:33.985Z,94803.52
2019-03-04T21:41:33.529Z,94813.25
2019-03-04T21:44:52.965Z,94800.23
2019-03-04T21:47:29.646Z,94826.75
2019-03-04T21:49:59.165Z,94832.44
2019-03-04T21:52:54.377Z,94834.48
2019-03-04T21:55:50.759Z,94836.23
2019-03-04T21:58:20.190Z,94826.53
2019-03-04T22:01:00.487Z,94835.20
2019-03-04T22:03:35.962Z,94835.84
2019-03-04T22:06:06.561Z,94824.95
2019-03-04T22:08:35.981Z,94834.58
2019-03-04T22:11:05.951Z,94834.16
2019-03-04T22:13:35.642Z,94824.31
2019-03-04T22:16:05.164Z,94839.38
2019-03-04T22:18:34.572Z,94828.63
2019-03-04T22:21:04.137Z,94816.98
2019-03-04T22:23:33.488Z,94828.88
2019-03-04T22:26:02.868Z,94827.06
2019-03-04T22:28:32.288Z,94816.83
2019-03-04T22:31:01.640Z,94816.19
2019-03-04T22:33:30.988Z,94832.04
2019-03-04T22:36:00.398Z,94836.36
2019-03-04T22:38:29.820Z,94836.36
2019-03-04T22:40:59.221Z,94849.20
2019-03-04T22:43:28.682Z,94849.83
2019-03-04T22:45:58.105Z,94853.53
2019-03-04T22:48:27.529Z,94856.92
2019-03-04T22:50:56.970Z,94847.70
2019-03-04T22:53:26.350Z,94839.34
2019-03-04T22:55:56.103Z,94849.84
2019-03-04T22:58:28.857Z,94847.38
2019-03-04T23:01:37.059Z,94859.43
2019-03-04T23:04:36.025Z,94859.29
2019-03-04T23:07:37.454Z,94848.73
2019-03-04T23:10:32.719Z,94855.33
2019-03-04T23:13:43.615Z,94842.66
2019-03-04T23:16:15.575Z,94846.28
2019-03-04T23:18:44.950Z,94850.70
2019-03-04T23:21:14.315Z,94843.94
2019-03-04T23:23:43.683Z,94837.86
2019-03-04T23:26:13.075Z,94846.69
2019-03-04T23:28:42.460Z,94849.66
2019-03-04T23:31:11.867Z,94843.47
2019-03-04T23:33:41.259Z,94864.08
2019-03-04T23:36:10.752Z,94851.31
2019-03-04T23:38:40.107Z,94847.17
2019-03-04T23:41:09.502Z,94846.35
2019-03-04T23:43:38.861Z,94857.09
2019-03-04T23:46:08.233Z,94849.76
2019-03-04T23:48:37.639Z,94869.38
2019-03-04T23:51:06.991Z,94865.91
2019-03-04T23:53:36.384Z,94871.48
2019-03-04T23:56:05.829Z,94872.11
2019-03-04T23:58:35.212Z,94865.50
